createdAt,value
2022-12-11T00:01:25.978Z,93114.47
2022-12-11T00:04:29.564Z,93126.00
2022-12-11T00:07:32.909Z,93117.06
2022-12-11T00:10:37.911Z,93116.03
2022-12-11T00:13:42.506Z,93117.72
2022-12-11T00:16:49.139Z,93109.22
2022-12-11T00:19:53.174Z,93121.22
2022-12-11T00:22:57.915Z,93115.00
2022-12-11T00:26:02.147Z,93114.94
2022-12-11T00:29:06.031Z,93112.94
2022-12-11T00:32:09.680Z,93112.97
2022-12-11T00:35:13.794Z,93113.28
2022-12-11T00:38:19.913Z,93104.31
2022-12-11T00:41:23.716Z,93113.22
2022-12-11T00:44:27.916Z,93097.84
2022-12-11T00:47:31.266Z,93105.25
2022-12-11T00:50:35.833Z,93093.72
2022-12-11T00:53:40.259Z,93100.94
2022-12-11T00:56:44.031Z,93100.38
2022-12-11T00:59:48.164Z,93097.53
2022-12-11T01:02:52.624Z,93101.44
2022-12-11T01:05:56.421Z,93092.41
2022-12-11T01:09:18.740Z,93103.75
2022-12-11T01:12:22.340Z,93091.66
2022-12-11T01:15:30.656Z,93087.66
2022-12-11T01:18:35.619Z,93085.94
2022-12-11T01:21:39.172Z,93091.50
2022-12-11T01:24:51.957Z,93078.91
2022-12-11T01:27:56.434Z,93077.75
2022-12-11T01:31:00.218Z,93079.66
2022-12-11T01:34:03.292Z,93081.53
2022-12-11T01:37:06.267Z,93076.34
2022-12-11T01:40:12.305Z,93070.88
2022-12-11T01:43:15.347Z,93072.47
2022-12-11T01:46:19.307Z,93078.81
2022-12-11T01:49:27.408Z,93072.69
2022-12-11T01:52:30.799Z,93072.75
2022-12-11T01:55:35.387Z,93069.94
2022-12-11T01:58:47.862Z,93061.91
2022-12-11T02:02:05.716Z,93072.41
2022-12-11T02:05:10.385Z,93072.25
2022-12-11T02:08:14.039Z,93063.81
2022-12-11T02:11:22.777Z,93064.84
2022-12-11T02:14:42.574Z,93067.94
2022-12-11T02:17:51.821Z,93069.06
2022-12-11T02:21:08.563Z,93061.13
2022-12-11T02:24:42.843Z,93055.72
2022-12-11T02:27:54.028Z,93059.84
2022-12-11T02:31:15.140Z,93046.09
2022-12-11T02:34:29.903Z,93043.22
2022-12-11T02:37:37.289Z,93051.97
2022-12-11T02:40:43.151Z,93040.56
2022-12-11T02:43:48.730Z,93032.38
2022-12-11T02:46:53.762Z,93040.63
2022-12-11T02:50:01.198Z,93028.06
2022-12-11T02:53:07.618Z,93031.88
2022-12-11T02:56:22.979Z,93033.38
2022-12-11T02:59:47.162Z,93032.28
2022-12-11T03:02:50.927Z,93021.13
2022-12-11T03:05:54.913Z,93014.75
2022-12-11T03:08:58.981Z,93013.59
2022-12-11T03:12:03.314Z,93003.22
2022-12-11T03:15:11.912Z,93004.53
2022-12-11T03:18:39.632Z,93004.06
2022-12-11T03:22:12.402Z,92995.09
2022-12-11T03:25:26.979Z,93001.16
2022-12-11T03:28:44.538Z,92996.06
2022-12-11T03:32:02.208Z,92981.94
2022-12-11T03:35:14.768Z,92979.91
2022-12-11T03:38:25.557Z,92967.84
2022-12-11T03:41:32.126Z,92958.03
2022-12-11T03:44:36.754Z,92956.63
2022-12-11T03:47:42.655Z,92952.84
2022-12-11T03:50:48.600Z,92945.91
2022-12-11T03:53:53.300Z,92953.69
2022-12-11T03:56:59.898Z,92953.19
2022-12-11T04:00:07.314Z,92938.63
2022-12-11T04:03:14.930Z,92929.47
2022-12-11T04:06:19.179Z,92931.53
2022-12-11T04:09:22.926Z,92922.69
2022-12-11T04:12:27.075Z,92908.84
2022-12-11T04:15:30.397Z,92913.88
2022-12-11T04:18:52.239Z,92906.44
2022-12-11T04:22:13.725Z,92915.91
2022-12-11T04:25:17.095Z,92907.69
2022-12-11T04:28:20.866Z,92906.16
2022-12-11T04:31:24.884Z,92909.59
2022-12-11T04:34:29.080Z,92904.06
2022-12-11T04:37:32.366Z,92904.00
2022-12-11T04:40:36.210Z,92891.03
2022-12-11T04:43:40.372Z,92891.03
2022-12-11T04:46:43.786Z,92881.84
2022-12-11T04:49:47.430Z,92877.19
2022-12-11T04:52:51.408Z,92878.03
2022-12-11T04:55:55.045Z,92871.31
2022-12-11T04:58:58.708Z,92868.63
2022-12-11T05:02:02.189Z,92872.41
2022-12-11T05:05:07.384Z,92864.38
2022-12-11T05:08:11.532Z,92856.31
2022-12-11T05:11:16.389Z,92847.97
2022-12-11T05:14:20.450Z,92843.19
2022-12-11T05:17:24.243Z,92835.75
2022-12-11T05:20:29.916Z,92830.72
2022-12-11T05:23:34.306Z,92823.03
2022-12-11T05:26:38.431Z,92810.53
2022-12-11T05:29:42.075Z,92811.53
2022-12-11T05:32:46.278Z,92797.59
2022-12-11T05:35:50.649Z,92793.72
2022-12-11T05:38:55.125Z,92793.72
2022-12-11T05:41:58.924Z,92787.97
2022-12-11T05:45:02.717Z,92777.63
2022-12-11T05:48:06.524Z,92770.66
2022-12-11T05:51:11.541Z,92763.78
2022-12-11T05:54:15.893Z,92756.81
2022-12-11T05:57:19.917Z,92751.25
2022-12-11T06:00:23.768Z,92738.50
2022-12-11T06:03:28.031Z,92744.81
2022-12-11T06:06:32.285Z,92734.44
2022-12-11T06:09:36.400Z,92733.59
2022-12-11T06:12:39.979Z,92732.25
2022-12-11T06:15:44.097Z,92732.28
2022-12-11T06:18:48.693Z,92730.31
2022-12-11T06:21:52.762Z,92727.09
2022-12-11T06:24:56.585Z,92721.97
2022-12-11T06:28:00.604Z,92719.22
2022-12-11T06:31:05.119Z,92711.28
2022-12-11T06:34:10.401Z,92702.81
2022-12-11T06:37:14.588Z,92705.47
2022-12-11T06:40:18.717Z,92708.06
2022-12-11T06:43:22.401Z,92693.13
2022-12-11T06:46:26.495Z,92689.69
2022-12-11T06:49:31.068Z,92687.94
2022-12-11T06:52:34.835Z,92680.84
2022-12-11T06:55:38.713Z,92675.34
2022-12-11T06:58:44.830Z,92673.50
2022-12-11T07:01:48.755Z,92675.63
2022-12-11T07:04:55.186Z,92666.06
2022-12-11T07:07:59.336Z,92671.16
2022-12-11T07:11:05.612Z,92661.03
2022-12-11T07:14:09.795Z,92656.94
2022-12-11T07:17:13.807Z,92650.13
2022-12-11T07:20:17.836Z,92644.31
2022-12-11T07:23:22.518Z,92646.78
2022-12-11T07:26:26.443Z,92644.81
2022-12-11T07:29:30.748Z,92635.84
2022-12-11T07:32:34.644Z,92634.31
2022-12-11T07:35:38.803Z,92625.31
2022-12-11T07:38:42.882Z,92616.47
2022-12-11T07:41:48.049Z,92621.50
2022-12-11T07:44:53.628Z,92621.69
2022-12-11T07:47:57.615Z,92615.38
2022-12-11T07:51:15.822Z,92615.56
2022-12-11T07:54:21.894Z,92602.44
2022-12-11T07:57:25.741Z,92605.56
2022-12-11T08:00:29.772Z,92600.56
2022-12-11T08:03:33.031Z,92597.28
2022-12-11T08:06:40.067Z,92598.66
2022-12-11T08:09:43.705Z,92593.03
2022-12-11T08:12:47.723Z,92588.41
2022-12-11T08:15:54.595Z,92581.50
2022-12-11T08:18:59.379Z,92579.44
2022-12-11T08:22:02.756Z,92582.41
2022-12-11T08:25:07.381Z,92579.47
2022-12-11T08:28:11.062Z,92584.84
2022-12-11T08:31:16.588Z,92581.75
2022-12-11T08:34:20.376Z,92565.91
2022-12-11T08:37:24.752Z,92575.44
2022-12-11T08:40:28.439Z,92580.75
2022-12-11T08:43:35.073Z,92575.06
2022-12-11T08:46:39.015Z,92566.75
2022-12-11T08:49:42.832Z,92572.09
2022-12-11T08:52:46.593Z,92569.31
2022-12-11T08:55:50.989Z,92567.81
2022-12-11T08:58:55.414Z,92563.47
2022-12-11T09:01:59.553Z,92563.50
2022-12-11T09:05:02.651Z,92562.09
2022-12-11T09:08:06.826Z,92568.50
2022-12-11T09:11:14.572Z,92565.91
2022-12-11T09:14:17.915Z,92563.13
2022-12-11T09:17:21.664Z,92564.31
2022-12-11T09:20:25.337Z,92545.00
2022-12-11T09:23:28.900Z,92544.84
2022-12-11T09:26:33.089Z,92544.69
2022-12-11T09:29:36.787Z,92541.59
2022-12-11T09:32:40.565Z,92542.25
2022-12-11T09:35:43.887Z,92540.00
2022-12-11T09:38:47.950Z,92528.63
2022-12-11T09:42:09.332Z,92535.31
2022-12-11T09:45:16.491Z,92532.53
2022-12-11T09:48:24.872Z,92532.38
2022-12-11T09:51:33.612Z,92542.19
2022-12-11T09:54:37.329Z,92532.88
2022-12-11T09:58:14.064Z,92532.19
2022-12-11T10:01:41.919Z,92526.00
2022-12-11T10:05:10.369Z,92525.75
2022-12-11T10:08:26.186Z,92517.31
2022-12-11T10:12:05.662Z,92513.72
2022-12-11T10:15:26.801Z,92512.34
2022-12-11T10:18:32.372Z,92511.16
2022-12-11T10:21:41.207Z,92515.66
2022-12-11T10:25:11.084Z,92509.13
2022-12-11T10:28:19.655Z,92500.00
2022-12-11T10:31:44.423Z,92492.66
2022-12-11T10:34:50.135Z,92491.25
2022-12-11T10:37:58.964Z,92483.09
2022-12-11T10:41:06.186Z,92484.72
2022-12-11T10:44:27.209Z,92480.38
2022-12-11T10:47:30.644Z,92477.63
2022-12-11T10:50:34.753Z,92474.25
2022-12-11T10:53:38.120Z,92478.81
2022-12-11T10:56:41.613Z,92476.28
2022-12-11T10:59:48.582Z,92471.63
2022-12-11T11:02:52.680Z,92480.22
2022-12-11T11:06:17.715Z,92470.94
2022-12-11T11:09:39.058Z,92475.75
2022-12-11T11:12:45.600Z,92462.84
2022-12-11T11:15:50.020Z,92466.31
2022-12-11T11:18:56.433Z,92471.53
2022-12-11T11:22:02.755Z,92458.75
2022-12-11T11:25:06.642Z,92473.09
2022-12-11T11:28:26.941Z,92463.91
2022-12-11T11:31:35.755Z,92465.50
2022-12-11T11:34:39.969Z,92460.72
2022-12-11T11:37:50.266Z,92456.91
2022-12-11T11:41:38.692Z,92458.59
2022-12-11T11:44:57.760Z,92454.41
2022-12-11T11:48:18.333Z,92455.00
2022-12-11T11:52:05.208Z,92450.00
2022-12-11T11:55:29.375Z,92449.16
2022-12-11T11:58:47.401Z,92452.63
2022-12-11T12:01:54.966Z,92450.59
2022-12-11T12:04:58.088Z,92445.59
2022-12-11T12:08:16.509Z,92452.84
2022-12-11T12:11:42.372Z,92445.41
2022-12-11T12:15:14.585Z,92448.00
2022-12-11T12:18:40.004Z,92443.56
2022-12-11T12:21:48.590Z,92448.03
2022-12-11T12:25:24.835Z,92456.13
2022-12-11T12:28:31.270Z,92453.75
2022-12-11T12:32:02.620Z,92451.69
2022-12-11T12:35:31.958Z,92444.25
2022-12-11T12:38:52.214Z,92445.63
2022-12-11T12:42:22.060Z,92437.88
2022-12-11T12:45:41.067Z,92446.31
2022-12-11T12:48:46.770Z,92441.16
2022-12-11T12:51:51.823Z,92439.63
2022-12-11T12:55:17.132Z,92440.16
2022-12-11T12:58:43.700Z,92443.94
2022-12-11T13:01:53.306Z,92431.38
2022-12-11T13:05:04.038Z,92431.56
2022-12-11T13:08:07.274Z,92425.53
2022-12-11T13:11:13.413Z,92404.69
2022-12-11T13:14:17.335Z,92415.72
2022-12-11T13:17:23.351Z,92421.38
2022-12-11T13:20:31.517Z,92415.03
2022-12-11T13:23:35.807Z,92416.06
2022-12-11T13:26:40.722Z,92407.97
2022-12-11T13:29:44.507Z,92409.88
2022-12-11T13:33:24.028Z,92404.34
2022-12-11T13:36:31.968Z,92396.75
2022-12-11T13:39:40.939Z,92406.72
2022-12-11T13:43:00.073Z,92403.28
2022-12-11T13:46:11.467Z,92396.91
2022-12-11T13:49:24.722Z,92394.31
2022-12-11T13:52:29.438Z,92399.09
2022-12-11T13:55:35.155Z,92399.63
2022-12-11T13:58:41.544Z,92401.38
2022-12-11T14:01:44.574Z,92399.09
2022-12-11T14:04:50.404Z,92404.41
2022-12-11T14:07:59.409Z,92401.00
2022-12-11T14:11:03.215Z,92394.97
2022-12-11T14:14:17.042Z,92401.69
2022-12-11T14:17:31.027Z,92398.56
2022-12-11T14:20:35.897Z,92393.22
2022-12-11T14:23:39.659Z,92390.47
2022-12-11T14:26:51.887Z,92394.91
2022-12-11T14:29:55.928Z,92399.91
2022-12-11T14:33:03.134Z,92397.50
2022-12-11T14:36:07.296Z,92399.06
2022-12-11T14:39:34.845Z,92389.75
2022-12-11T14:42:43.853Z,92396.78
2022-12-11T14:45:50.642Z,92391.84
2022-12-11T14:49:01.622Z,92400.78
2022-12-11T14:52:06.185Z,92410.38
2022-12-11T14:55:13.596Z,92402.44
2022-12-11T14:58:24.122Z,92411.72
2022-12-11T15:01:33.078Z,92403.09
2022-12-11T15:04:37.363Z,92406.75
2022-12-11T15:07:44.223Z,92397.03
2022-12-11T15:11:10.238Z,92409.41
2022-12-11T15:14:16.374Z,92418.16
2022-12-11T15:17:20.272Z,92423.88
2022-12-11T15:20:32.866Z,92427.97
2022-12-11T15:23:57.166Z,92432.31
2022-12-11T15:27:01.797Z,92434.94
2022-12-11T15:30:29.549Z,92432.19
2022-12-11T15:33:34.577Z,92431.00
2022-12-11T15:36:38.991Z,92426.44
2022-12-11T15:39:42.834Z,92427.06
2022-12-11T15:42:48.305Z,92426.69
2022-12-11T15:45:51.358Z,92426.19
2022-12-11T15:48:54.957Z,92422.97
2022-12-11T15:51:58.790Z,92426.41
2022-12-11T15:55:02.955Z,92420.22
2022-12-11T15:58:09.807Z,92415.75
2022-12-11T16:01:14.131Z,92425.06
2022-12-11T16:04:17.779Z,92416.41
2022-12-11T16:07:26.792Z,92415.56
2022-12-11T16:10:30.649Z,92413.00
2022-12-11T16:13:34.356Z,92419.53
2022-12-11T16:16:37.981Z,92411.56
2022-12-11T16:19:42.816Z,92404.66
2022-12-11T16:22:46.570Z,92408.28
2022-12-11T16:25:50.913Z,92416.06
2022-12-11T16:28:54.685Z,92406.41
2022-12-11T16:31:57.694Z,92404.03
2022-12-11T16:35:01.649Z,92394.72
2022-12-11T16:38:05.961Z,92399.34
2022-12-11T16:41:09.749Z,92398.88
2022-12-11T16:44:13.958Z,92405.63
2022-12-11T16:47:17.675Z,92399.72
2022-12-11T16:50:21.913Z,92394.38
2022-12-11T16:53:26.271Z,92395.97
2022-12-11T16:56:30.067Z,92400.97
2022-12-11T16:59:37.238Z,92401.81
2022-12-11T17:02:41.831Z,92406.47
2022-12-11T17:05:45.546Z,92411.28
2022-12-11T17:08:49.145Z,92425.41
2022-12-11T17:11:53.845Z,92410.25
2022-12-11T17:14:58.014Z,92412.31
2022-12-11T17:18:01.310Z,92415.75
2022-12-11T17:21:15.062Z,92408.88
2022-12-11T17:24:18.526Z,92415.09
2022-12-11T17:27:22.257Z,92415.44
2022-12-11T17:30:25.898Z,92425.59
2022-12-11T17:33:30.095Z,92414.75
2022-12-11T17:36:34.687Z,92412.34
2022-12-11T17:39:39.668Z,92411.81
2022-12-11T17:42:45.351Z,92410.28
2022-12-11T17:45:53.009Z,92424.72
2022-12-11T17:48:57.209Z,92409.22
2022-12-11T17:52:01.343Z,92418.88
2022-12-11T17:55:06.533Z,92424.19
2022-12-11T17:58:16.280Z,92422.47
2022-12-11T18:01:20.458Z,92416.28
2022-12-11T18:04:23.679Z,92424.56
2022-12-11T18:07:27.428Z,92416.94
2022-12-11T18:10:31.086Z,92410.19
2022-12-11T18:13:34.215Z,92417.91
2022-12-11T18:16:39.275Z,92417.56
2022-12-11T18:19:46.081Z,92414.75
2022-12-11T18:22:50.075Z,92414.94
2022-12-11T18:25:53.815Z,92430.38
2022-12-11T18:28:57.599Z,92432.47
2022-12-11T18:32:01.229Z,92439.66
2022-12-11T18:35:05.757Z,92425.16
2022-12-11T18:38:11.080Z,92426.50
2022-12-11T18:41:15.562Z,92441.13
2022-12-11T18:44:23.135Z,92434.03
2022-12-11T18:47:27.539Z,92433.03
2022-12-11T18:50:31.221Z,92428.03
2022-12-11T18:53:35.853Z,92439.56
2022-12-11T18:56:39.339Z,92449.69
2022-12-11T18:59:43.376Z,92444.69
2022-12-11T19:02:47.148Z,92459.00
2022-12-11T19:05:50.853Z,92439.19
2022-12-11T19:08:54.520Z,92442.72
2022-12-11T19:11:58.495Z,92432.16
2022-12-11T19:15:02.278Z,92442.31
2022-12-11T19:18:06.400Z,92436.50
2022-12-11T19:21:12.442Z,92440.94
2022-12-11T19:24:20.582Z,92432.25
2022-12-11T19:27:24.659Z,92439.41
2022-12-11T19:30:28.767Z,92453.97
2022-12-11T19:33:32.359Z,92450.91
2022-12-11T19:36:38.112Z,92447.84
2022-12-11T19:39:41.732Z,92459.31
2022-12-11T19:42:45.860Z,92451.41
2022-12-11T19:45:49.838Z,92461.00
2022-12-11T19:48:55.055Z,92456.47
2022-12-11T19:51:58.679Z,92460.13
2022-12-11T19:55:04.654Z,92451.59
2022-12-11T19:58:08.320Z,92451.56
2022-12-11T20:01:25.504Z,92451.41
2022-12-11T20:04:29.384Z,92467.22
2022-12-11T20:07:33.174Z,92468.88
2022-12-11T20:10:37.503Z,92466.47
2022-12-11T20:13:41.920Z,92461.59
2022-12-11T20:17:10.098Z,92468.13
2022-12-11T20:20:10.686Z,92467.84
2022-12-11T20:23:14.037Z,92462.63
2022-12-11T20:26:24.280Z,92464.50
2022-12-11T20:29:28.263Z,92469.06
2022-12-11T20:32:31.901Z,92472.00
2022-12-11T20:35:34.970Z,92483.75
2022-12-11T20:38:39.136Z,92485.72
2022-12-11T20:41:42.825Z,92476.69
2022-12-11T20:44:49.245Z,92479.28
2022-12-11T20:47:53.347Z,92477.88
2022-12-11T20:51:03.756Z,92481.47
2022-12-11T20:54:06.979Z,92497.63
2022-12-11T20:57:11.520Z,92494.47
2022-12-11T21:00:15.713Z,92505.03
2022-12-11T21:03:20.023Z,92505.53
2022-12-11T21:06:26.538Z,92507.09
2022-12-11T21:09:30.403Z,92509.19
2022-12-11T21:12:34.393Z,92504.25
2022-12-11T21:15:40.310Z,92501.56
2022-12-11T21:18:44.851Z,92508.09
2022-12-11T21:21:49.598Z,92501.34
2022-12-11T21:24:53.014Z,92506.09
2022-12-11T21:27:57.172Z,92508.28
2022-12-11T21:31:04.088Z,92505.47
2022-12-11T21:34:08.407Z,92496.00
2022-12-11T21:37:12.067Z,92496.19
2022-12-11T21:40:15.579Z,92499.34
2022-12-11T21:43:19.423Z,92512.34
2022-12-11T21:46:26.303Z,92495.13
2022-12-11T21:49:29.634Z,92496.69
2022-12-11T21:52:33.697Z,92522.66
2022-12-11T21:55:41.813Z,92523.19
2022-12-11T21:58:46.465Z,92518.56
2022-12-11T22:01:50.280Z,92508.53
2022-12-11T22:04:55.134Z,92533.44
2022-12-11T22:07:58.380Z,92515.19
2022-12-11T22:11:02.457Z,92517.78
2022-12-11T22:14:07.472Z,92513.31
2022-12-11T22:17:11.063Z,92508.22
2022-12-11T22:20:15.099Z,92535.38
2022-12-11T22:23:18.994Z,92532.63
2022-12-11T22:26:26.808Z,92536.94
2022-12-11T22:29:30.289Z,92547.88
2022-12-11T22:32:33.591Z,92549.97
2022-12-11T22:35:37.929Z,92556.66
2022-12-11T22:38:41.662Z,92549.59
2022-12-11T22:41:45.666Z,92546.34
2022-12-11T22:44:49.319Z,92558.84
2022-12-11T22:47:53.438Z,92571.53
2022-12-11T22:50:56.986Z,92563.38
2022-12-11T22:54:02.129Z,92566.78
2022-12-11T22:57:05.767Z,92564.84
2022-12-11T23:00:12.026Z,92562.97
2022-12-11T23:03:15.811Z,92564.72
2022-12-11T23:06:22.860Z,92565.81
2022-12-11T23:09:26.719Z,92567.72
2022-12-11T23:12:30.468Z,92576.53
2022-12-11T23:15:34.559Z,92573.84
2022-12-11T23:18:38.506Z,92578.03
2022-12-11T23:21:42.985Z,92582.94
2022-12-11T23:24:48.153Z,92579.56
2022-12-11T23:27:51.621Z,92583.16
2022-12-11T23:30:55.968Z,92584.03
2022-12-11T23:33:59.890Z,92577.88
2022-12-11T23:37:04.131Z,92595.53
2022-12-11T23:40:09.621Z,92598.47
2022-12-11T23:43:13.642Z,92590.53
2022-12-11T23:46:20.982Z,92591.28
2022-12-11T23:49:25.126Z,92594.22
2022-12-11T23:52:28.730Z,92592.38
2022-12-11T23:55:32.937Z,92599.50
2022-12-11T23:58:38.033Z,92608.66
